sensor_id;sensor_type;location;lat;lon;timestamp;pressure;altitude;pressure_sealevel;temperature;humidity
76156;BME280;64906;51.290;7.348;2023-04-22T00:00:24;97949.03;;;20.68;39.42
76156;BME280;64906;51.290;7.348;2023-04-22T00:02:49;97952.75;;;20.72;39.52
76156;BME280;64906;51.290;7.348;2023-04-22T00:05:15;97952.09;;;20.67;39.36
76156;BME280;64906;51.290;7.348;2023-04-22T00:07:42;97942.72;;;20.68;39.28
76156;BME280;64906;51.290;7.348;2023-04-22T00:10:09;97950.13;;;20.67;39.54
76156;BME280;64906;51.290;7.348;2023-04-22T00:12:35;97957.56;;;20.67;39.24
76156;BME280;64906;51.290;7.348;2023-04-22T00:15:01;97950.75;;;20.64;39.46
76156;BME280;64906;51.290;7.348;2023-04-22T00:17:26;97956.75;;;20.66;39.27
76156;BME280;64906;51.290;7.348;2023-04-22T00:19:51;97956.06;;;20.61;39.53
76156;BME280;64906;51.290;7.348;2023-04-22T00:22:17;97951.06;;;20.63;39.28
76156;BME280;64906;51.290;7.348;2023-04-22T00:24:42;97960.94;;;20.64;39.36
76156;BME280;64906;51.290;7.348;2023-04-22T00:27:08;97963.38;;;20.65;39.36
76156;BME280;64906;51.290;7.348;2023-04-22T00:29:33;97951.91;;;20.63;39.42
76156;BME280;64906;51.290;7.348;2023-04-22T00:31:59;97961.25;;;20.62;39.59
76156;BME280;64906;51.290;7.348;2023-04-22T00:34:24;97949.78;;;20.60;39.08
76156;BME280;64906;51.290;7.348;2023-04-22T00:36:49;97950.09;;;20.59;39.31
76156;BME280;64906;51.290;7.348;2023-04-22T00:39:15;97952.84;;;20.59;39.52
76156;BME280;64906;51.290;7.348;2023-04-22T00:41:41;97943.09;;;20.53;39.54
76156;BME280;64906;51.290;7.348;2023-04-22T00:44:10;97935.88;;;20.57;39.23
76156;BME280;64906;51.290;7.348;2023-04-22T00:46:37;97943.94;;;20.53;39.57
76156;BME280;64906;51.290;7.348;2023-04-22T00:49:03;97940.03;;;20.54;39.62
76156;BME280;64906;51.290;7.348;2023-04-22T00:51:29;97940.38;;;20.53;39.43
76156;BME280;64906;51.290;7.348;2023-04-22T00:53:56;97939.88;;;20.51;39.47
76156;BME280;64906;51.290;7.348;2023-04-22T00:56:24;97941.69;;;20.55;39.71
76156;BME280;64906;51.290;7.348;2023-04-22T00:58:52;97940.69;;;20.51;39.32
76156;BME280;64906;51.290;7.348;2023-04-22T01:01:18;97944.75;;;20.54;39.44
76156;BME280;64906;51.290;7.348;2023-04-22T01:03:45;97943.75;;;20.50;39.71
76156;BME280;64906;51.290;7.348;2023-04-22T01:06:11;97945.97;;;20.48;39.44
76156;BME280;64906;51.290;7.348;2023-04-22T01:08:37;97942.13;;;20.49;39.41
76156;BME280;64906;51.290;7.348;2023-04-22T01:11:02;97938.88;;;20.47;39.61
76156;BME280;64906;51.290;7.348;2023-04-22T01:13:27;97939.38;;;20.49;39.36
76156;BME280;64906;51.290;7.348;2023-04-22T01:15:54;97939.88;;;20.51;39.14
76156;BME280;64906;51.290;7.348;2023-04-22T01:18:20;97931.16;;;20.49;39.32
76156;BME280;64906;51.290;7.348;2023-04-22T01:20:46;97930.97;;;20.45;39.45
76156;BME280;64906;51.290;7.348;2023-04-22T01:23:16;97935.63;;;20.45;39.55
76156;BME280;64906;51.290;7.348;2023-04-22T01:25:43;97936.25;;;20.42;39.62
76156;BME280;64906;51.290;7.348;2023-04-22T01:28:08;97934.66;;;20.41;39.50
76156;BME280;64906;51.290;7.348;2023-04-22T01:30:34;97934.66;;;20.41;39.62
76156;BME280;64906;51.290;7.348;2023-04-22T01:32:59;97933.34;;;20.38;39.39
76156;BME280;64906;51.290;7.348;2023-04-22T01:35:25;97934.47;;;20.37;39.54
76156;BME280;64906;51.290;7.348;2023-04-22T01:37:50;97937.53;;;20.36;39.67
76156;BME280;64906;51.290;7.348;2023-04-22T01:40:18;97938.94;;;20.33;39.67
76156;BME280;64906;51.290;7.348;2023-04-22T01:42:46;97936.19;;;20.33;39.59
76156;BME280;64906;51.290;7.348;2023-04-22T01:45:12;97942.50;;;20.34;39.46
76156;BME280;64906;51.290;7.348;2023-04-22T01:47:37;97947.34;;;20.37;39.88
76156;BME280;64906;51.290;7.348;2023-04-22T01:50:03;97945.25;;;20.34;39.64
76156;BME280;64906;51.290;7.348;2023-04-22T01:52:29;97943.63;;;20.33;39.62
76156;BME280;64906;51.290;7.348;2023-04-22T01:54:55;97942.00;;;20.32;39.76
76156;BME280;64906;51.290;7.348;2023-04-22T01:57:20;97943.94;;;20.31;39.60
76156;BME280;64906;51.290;7.348;2023-04-22T01:59:46;97943.94;;;20.31;39.81
76156;BME280;64906;51.290;7.348;2023-04-22T02:02:11;97946.50;;;20.28;39.89
76156;BME280;64906;51.290;7.348;2023-04-22T02:04:36;97942.63;;;20.29;39.74
76156;BME280;64906;51.290;7.348;2023-04-22T02:07:02;97946.19;;;20.29;39.66
76156;BME280;64906;51.290;7.348;2023-04-22T02:09:27;97948.41;;;20.27;39.57
76156;BME280;64906;51.290;7.348;2023-04-22T02:11:52;97944.88;;;20.27;39.63
76156;BME280;64906;51.290;7.348;2023-04-22T02:14:18;97946.19;;;20.29;39.69
76156;BME280;64906;51.290;7.348;2023-04-22T02:16:43;97942.94;;;20.27;39.74
76156;BME280;64906;51.290;7.348;2023-04-22T02:19:08;97939.38;;;20.27;39.56
76156;BME280;64906;51.290;7.348;2023-04-22T02:21:34;97941.34;;;20.26;39.58
76156;BME280;64906;51.290;7.348;2023-04-22T02:23:59;97936.94;;;20.25;39.69
76156;BME280;64906;51.290;7.348;2023-04-22T02:26:25;97937.47;;;20.27;39.65
76156;BME280;64906;51.290;7.348;2023-04-22T02:28:53;97940.81;;;20.24;39.77
76156;BME280;64906;51.290;7.348;2023-04-22T02:31:19;97929.34;;;20.22;39.52
76156;BME280;64906;51.290;7.348;2023-04-22T02:33:44;97943.56;;;20.24;39.73
76156;BME280;64906;51.290;7.348;2023-04-22T02:36:09;97931.28;;;20.22;39.73
76156;BME280;64906;51.290;7.348;2023-04-22T02:38:35;97937.25;;;20.24;39.58
76156;BME280;64906;51.290;7.348;2023-04-22T02:41:01;97933.72;;;20.23;39.79
76156;BME280;64906;51.290;7.348;2023-04-22T02:43:26;97938.72;;;20.21;39.56
76156;BME280;64906;51.290;7.348;2023-04-22T02:45:51;97931.91;;;20.19;39.65
76156;BME280;64906;51.290;7.348;2023-04-22T02:48:16;97928.06;;;20.20;39.70
76156;BME280;64906;51.290;7.348;2023-04-22T02:50:42;97925.78;;;20.22;39.57
76156;BME280;64906;51.290;7.348;2023-04-22T02:53:07;97920.94;;;20.19;39.80
76156;BME280;64906;51.290;7.348;2023-04-22T02:55:33;97918.53;;;20.17;39.75
76156;BME280;64906;51.290;7.348;2023-04-22T02:57:58;97918.53;;;20.17;39.96
76156;BME280;64906;51.290;7.348;2023-04-22T03:00:24;97921.75;;;20.19;39.60
76156;BME280;64906;51.290;7.348;2023-04-22T03:02:49;97912.22;;;20.17;39.60
76156;BME280;64906;51.290;7.348;2023-04-22T03:05:14;97913.84;;;20.18;39.83
76156;BME280;64906;51.290;7.348;2023-04-22T03:07:40;97916.59;;;20.18;39.81
76156;BME280;64906;51.290;7.348;2023-04-22T03:10:06;97908.88;;;20.20;39.78
76156;BME280;64906;51.290;7.348;2023-04-22T03:12:31;97911.13;;;20.18;39.64
76156;BME280;64906;51.290;7.348;2023-04-22T03:14:57;97913.84;;;20.18;39.71
76156;BME280;64906;51.290;7.348;2023-04-22T03:17:22;97905.13;;;20.16;39.83
76156;BME280;64906;51.290;7.348;2023-04-22T03:19:47;97906.75;;;20.17;39.54
76156;BME280;64906;51.290;7.348;2023-04-22T03:22:13;97907.88;;;20.16;39.71
76156;BME280;64906;51.290;7.348;2023-04-22T03:24:38;97898.50;;;20.17;39.45
76156;BME280;64906;51.290;7.348;2023-04-22T03:27:04;97902.06;;;20.17;39.79
76156;BME280;64906;51.290;7.348;2023-04-22T03:29:29;97898.19;;;20.18;39.83
76156;BME280;64906;51.290;7.348;2023-04-22T03:31:54;97895.78;;;20.17;39.42
76156;BME280;64906;51.290;7.348;2023-04-22T03:34:20;97886.75;;;20.16;39.43
76156;BME280;64906;51.290;7.348;2023-04-22T03:36:45;97892.84;;;20.13;39.58
76156;BME280;64906;51.290;7.348;2023-04-22T03:39:10;97889.81;;;20.15;39.31
76156;BME280;64906;51.290;7.348;2023-04-22T03:41:35;97884.34;;;20.15;39.59
76156;BME280;64906;51.290;7.348;2023-04-22T03:44:01;97890.88;;;20.14;39.71
76156;BME280;64906;51.290;7.348;2023-04-22T03:46:26;97887.97;;;20.10;39.56
76156;BME280;64906;51.290;7.348;2023-04-22T03:48:51;97884.63;;;20.13;39.55
76156;BME280;64906;51.290;7.348;2023-04-22T03:51:16;97885.72;;;20.12;39.62
76156;BME280;64906;51.290;7.348;2023-04-22T03:53:42;97880.25;;;20.12;39.82
76156;BME280;64906;51.290;7.348;2023-04-22T03:56:07;97870.41;;;20.11;39.58
76156;BME280;64906;51.290;7.348;2023-04-22T03:58:32;97876.41;;;20.13;39.58
76156;BME280;64906;51.290;7.348;2023-04-22T04:00:58;97882.66;;;20.14;39.63
76156;BME280;64906;51.290;7.348;2023-04-22T04:03:23;97875.28;;;20.14;39.80
76156;BME280;64906;51.290;7.348;2023-04-22T04:05:48;97872.25;;;20.16;39.83
76156;BME280;64906;51.290;7.348;2023-04-22T04:08:13;97872.25;;;20.16;39.72
76156;BME280;64906;51.290;7.348;2023-04-22T04:10:40;97862.41;;;20.15;39.97
76156;BME280;64906;51.290;7.348;2023-04-22T04:13:05;97863.50;;;20.14;39.74
76156;BME280;64906;51.290;7.348;2023-04-22T04:15:31;97864.31;;;20.14;39.74
76156;BME280;64906;51.290;7.348;2023-04-22T04:17:56;97865.16;;;20.15;39.73
76156;BME280;64906;51.290;7.348;2023-04-22T04:20:25;97861.78;;;20.18;39.77
76156;BME280;64906;51.290;7.348;2023-04-22T04:22:50;97860.97;;;20.17;40.28
76156;BME280;64906;51.290;7.348;2023-04-22T04:25:16;97857.91;;;20.19;39.83
76156;BME280;64906;51.290;7.348;2023-04-22T04:27:42;97862.56;;;20.18;40.09
76156;BME280;64906;51.290;7.348;2023-04-22T04:30:08;97853.56;;;20.18;40.20
76156;BME280;64906;51.290;7.348;2023-04-22T04:32:34;97852.75;;;20.17;40.34
76156;BME280;64906;51.290;7.348;2023-04-22T04:34:59;97854.66;;;20.17;40.34
76156;BME280;64906;51.290;7.348;2023-04-22T04:37:26;97853.06;;;20.16;40.05
76156;BME280;64906;51.290;7.348;2023-04-22T04:39:51;97851.16;;;20.16;40.36
76156;BME280;64906;51.290;7.348;2023-04-22T04:42:17;97851.94;;;20.17;40.50
76156;BME280;64906;51.290;7.348;2023-04-22T04:44:43;97856.81;;;20.20;40.25
76156;BME280;64906;51.290;7.348;2023-04-22T04:47:09;97846.94;;;20.19;40.29
76156;BME280;64906;51.290;7.348;2023-04-22T04:49:34;97845.34;;;20.18;40.39
76156;BME280;64906;51.290;7.348;2023-04-22T04:52:04;97837.44;;;20.16;40.58
76156;BME280;64906;51.290;7.348;2023-04-22T04:54:29;97850.19;;;20.21;40.45
76156;BME280;64906;51.290;7.348;2023-04-22T04:56:55;97841.66;;;20.22;40.57
76156;BME280;64906;51.290;7.348;2023-04-22T04:59:21;97841.66;;;20.22;40.72
76156;BME280;64906;51.290;7.348;2023-04-22T05:01:46;97841.84;;;20.26;40.88
76156;BME280;64906;51.290;7.348;2023-04-22T05:04:12;97846.50;;;20.25;40.13
76156;BME280;64906;51.290;7.348;2023-04-22T05:06:37;97848.94;;;20.27;40.65
76156;BME280;64906;51.290;7.348;2023-04-22T05:09:02;97849.75;;;20.27;40.84
76156;BME280;64906;51.290;7.348;2023-04-22T05:11:28;97843.63;;;20.30;40.69
76156;BME280;64906;51.290;7.348;2023-04-22T05:13:53;97841.72;;;20.31;40.65
76156;BME280;64906;51.290;7.348;2023-04-22T05:16:18;97848.81;;;20.32;40.65
76156;BME280;64906;51.290;7.348;2023-04-22T05:18:44;97852.88;;;20.34;40.71
76156;BME280;64906;51.290;7.348;2023-04-22T05:21:09;97853.66;;;20.35;40.85
76156;BME280;64906;51.290;7.348;2023-04-22T05:23:34;97846.25;;;20.35;40.95
76156;BME280;64906;51.290;7.348;2023-04-22T05:25:59;97849.81;;;20.36;40.73
76156;BME280;64906;51.290;7.348;2023-04-22T05:28:25;97844.31;;;20.36;40.89
76156;BME280;64906;51.290;7.348;2023-04-22T05:30:50;97841.59;;;20.36;40.59
76156;BME280;64906;51.290;7.348;2023-04-22T05:33:15;97842.09;;;20.38;40.82
76156;BME280;64906;51.290;7.348;2023-04-22T05:35:41;97847.38;;;20.34;40.74
76156;BME280;64906;51.290;7.348;2023-04-22T05:38:06;97844.84;;;20.38;40.60
76156;BME280;64906;51.290;7.348;2023-04-22T05:40:31;97847.56;;;20.38;40.69
76156;BME280;64906;51.290;7.348;2023-04-22T05:42:57;97844.97;;;20.41;40.78
76156;BME280;64906;51.290;7.348;2023-04-22T05:45:22;97854.84;;;20.42;40.91
76156;BME280;64906;51.290;7.348;2023-04-22T05:47:47;97852.09;;;20.42;40.75
76156;BME280;64906;51.290;7.348;2023-04-22T05:50:13;97846.31;;;20.44;40.57
76156;BME280;64906;51.290;7.348;2023-04-22T05:52:38;97839.19;;;20.43;40.49
76156;BME280;64906;51.290;7.348;2023-04-22T05:55:04;97851.78;;;20.44;40.68
76156;BME280;64906;51.290;7.348;2023-04-22T05:57:30;97849.53;;;20.46;40.69
76156;BME280;64906;51.290;7.348;2023-04-22T05:59:55;97852.75;;;20.48;40.83
76156;BME280;64906;51.290;7.348;2023-04-22T06:02:21;97850.66;;;20.45;40.80
76156;BME280;64906;51.290;7.348;2023-04-22T06:04:46;97848.22;;;20.43;40.70
76156;BME280;64906;51.290;7.348;2023-04-22T06:07:11;97846.50;;;20.47;40.37
76156;BME280;64906;51.290;7.348;2023-04-22T06:09:37;97848.91;;;20.49;40.63
76156;BME280;64906;51.290;7.348;2023-04-22T06:12:02;97841.47;;;20.49;40.65
76156;BME280;64906;51.290;7.348;2023-04-22T06:14:27;97846.66;;;20.51;40.56
76156;BME280;64906;51.290;7.348;2023-04-22T06:16:53;97850.53;;;20.50;40.26
76156;BME280;64906;51.290;7.348;2023-04-22T06:19:18;97853.75;;;20.52;40.58
76156;BME280;64906;51.290;7.348;2023-04-22T06:21:44;97855.38;;;20.53;40.47
76156;BME280;64906;51.290;7.348;2023-04-22T06:24:09;97849.41;;;20.51;40.64
76156;BME280;64906;51.290;7.348;2023-04-22T06:26:37;97850.19;;;20.51;40.46
76156;BME280;64906;51.290;7.348;2023-04-22T06:29:03;97853.13;;;20.55;40.46
76156;BME280;64906;51.290;7.348;2023-04-22T06:31:32;97854.91;;;20.51;40.48
76156;BME280;64906;51.290;7.348;2023-04-22T06:33:58;97859.44;;;20.55;40.41
76156;BME280;64906;51.290;7.348;2023-04-22T06:36:24;97858.09;;;20.53;40.46
76156;BME280;64906;51.290;7.348;2023-04-22T06:38:50;97853.13;;;20.55;40.41
76156;BME280;64906;51.290;7.348;2023-04-22T06:41:15;97848.16;;;20.57;40.50
76156;BME280;64906;51.290;7.348;2023-04-22T06:43:41;97857.19;;;20.57;40.11
76156;BME280;64906;51.290;7.348;2023-04-22T06:46:06;97845.41;;;20.57;40.53
76156;BME280;64906;51.290;7.348;2023-04-22T06:48:31;97843.78;;;20.56;40.03
76156;BME280;64906;51.290;7.348;2023-04-22T06:50:57;97840.75;;;20.57;40.09
76156;BME280;64906;51.290;7.348;2023-04-22T06:53:22;97837.69;;;20.59;40.19
76156;BME280;64906;51.290;7.348;2023-04-22T06:55:47;97856.22;;;20.62;40.29
76156;BME280;64906;51.290;7.348;2023-04-22T06:58:12;97852.19;;;20.59;40.21
76156;BME280;64906;51.290;7.348;2023-04-22T07:00:38;97843.16;;;20.59;40.30
76156;BME280;64906;51.290;7.348;2023-04-22T07:03:03;97857.66;;;20.59;40.38
76156;BME280;64906;51.290;7.348;2023-04-22T07:05:28;97850.25;;;20.60;40.05
76156;BME280;64906;51.290;7.348;2023-04-22T07:07:54;97843.34;;;20.62;40.28
76156;BME280;64906;51.290;7.348;2023-04-22T07:10:19;97845.75;;;20.64;39.94
76156;BME280;64906;51.290;7.348;2023-04-22T07:12:44;97845.91;;;20.67;39.74
76156;BME280;64906;51.290;7.348;2023-04-22T07:15:10;97846.09;;;20.71;40.17
76156;BME280;64906;51.290;7.348;2023-04-22T07:17:35;97838.69;;;20.71;40.10
76156;BME280;64906;51.290;7.348;2023-04-22T07:20:01;97841.63;;;20.75;40.13
76156;BME280;64906;51.290;7.348;2023-04-22T07:22:26;97832.56;;;20.74;40.24
76156;BME280;64906;51.290;7.348;2023-04-22T07:24:51;97832.88;;;20.73;40.17
76156;BME280;64906;51.290;7.348;2023-04-22T07:27:17;97830.31;;;20.76;40.07
76156;BME280;64906;51.290;7.348;2023-04-22T07:29:42;97829.69;;;20.79;40.45
76156;BME280;64906;51.290;7.348;2023-04-22T07:32:08;97831.28;;;20.80;40.32
76156;BME280;64906;51.290;7.348;2023-04-22T07:34:33;97827.44;;;20.81;40.45
76156;BME280;64906;51.290;7.348;2023-04-22T07:36:59;97825.81;;;20.80;40.58
76156;BME280;64906;51.290;7.348;2023-04-22T07:39:24;97832.59;;;20.83;40.56
76156;BME280;64906;51.290;7.348;2023-04-22T07:41:50;97833.75;;;20.82;40.52
76156;BME280;64906;51.290;7.348;2023-04-22T07:44:15;97821.63;;;20.83;40.55
76156;BME280;64906;51.290;7.348;2023-04-22T07:46:45;97818.06;;;20.82;40.82
76156;BME280;64906;51.290;7.348;2023-04-22T07:49:11;97822.13;;;20.85;40.35
76156;BME280;64906;51.290;7.348;2023-04-22T07:51:39;97817.94;;;20.87;40.28
76156;BME280;64906;51.290;7.348;2023-04-22T07:54:05;97810.19;;;20.89;40.28
76156;BME280;64906;51.290;7.348;2023-04-22T07:56:31;97814.22;;;20.92;40.52
76156;BME280;64906;51.290;7.348;2023-04-22T07:58:56;97807.81;;;20.96;39.85
76156;BME280;64906;51.290;7.348;2023-04-22T08:01:21;97817.97;;;20.96;40.01
76156;BME280;64906;51.290;7.348;2023-04-22T08:03:47;97813.00;;;20.98;40.46
76156;BME280;64906;51.290;7.348;2023-04-22T08:06:12;97803.31;;;21.00;40.63
76156;BME280;64906;51.290;7.348;2023-04-22T08:08:37;97814.78;;;21.02;40.31
76156;BME280;64906;51.290;7.348;2023-04-22T08:11:03;97812.69;;;20.99;40.44
76156;BME280;64906;51.290;7.348;2023-04-22T08:13:29;97806.88;;;21.01;40.40
76156;BME280;64906;51.290;7.348;2023-04-22T08:15:54;97811.72;;;21.04;40.05
76156;BME280;64906;51.290;7.348;2023-04-22T08:18:19;97806.22;;;21.04;40.55
76156;BME280;64906;51.290;7.348;2023-04-22T08:20:46;97813.03;;;21.06;40.13
76156;BME280;64906;51.290;7.348;2023-04-22T08:23:12;97807.03;;;21.04;40.31
76156;BME280;64906;51.290;7.348;2023-04-22T08:25:37;97792.50;;;21.04;40.47
76156;BME280;64906;51.290;7.348;2023-04-22T08:28:02;97793.00;;;21.06;40.50
76156;BME280;64906;51.290;7.348;2023-04-22T08:30:28;97796.84;;;21.05;40.40
76156;BME280;64906;51.290;7.348;2023-04-22T08:32:53;97790.09;;;21.11;40.30
76156;BME280;64906;51.290;7.348;2023-04-22T08:35:19;97791.72;;;21.12;40.28
76156;BME280;64906;51.290;7.348;2023-04-22T08:37:44;97785.41;;;21.11;40.64
76156;BME280;64906;51.290;7.348;2023-04-22T08:40:10;97795.28;;;21.12;40.62
76156;BME280;64906;51.290;7.348;2023-04-22T08:42:36;97787.53;;;21.14;40.24
76156;BME280;64906;51.290;7.348;2023-04-22T08:45:03;97789.63;;;21.17;40.14
76156;BME280;64906;51.290;7.348;2023-04-22T08:47:30;97789.63;;;21.17;40.28
76156;BME280;64906;51.290;7.348;2023-04-22T08:49:57;97785.75;;;21.18;39.96
76156;BME280;64906;51.290;7.348;2023-04-22T08:52:23;97784.63;;;21.19;39.96
76156;BME280;64906;51.290;7.348;2023-04-22T08:54:48;97774.13;;;21.21;40.31
76156;BME280;64906;51.290;7.348;2023-04-22T08:57:14;97768.31;;;21.23;40.67
76156;BME280;64906;51.290;7.348;2023-04-22T08:59:40;97769.28;;;21.27;40.66
76156;BME280;64906;51.290;7.348;2023-04-22T09:02:06;97772.19;;;21.30;40.83
76156;BME280;64906;51.290;7.348;2023-04-22T09:04:37;97768.00;;;21.33;40.31
76156;BME280;64906;51.290;7.348;2023-04-22T09:07:05;97784.13;;;21.34;40.93
76156;BME280;64906;51.290;7.348;2023-04-22T09:09:31;97767.66;;;21.34;40.79
76156;BME280;64906;51.290;7.348;2023-04-22T09:11:56;97765.41;;;21.37;41.06
76156;BME280;64906;51.290;7.348;2023-04-22T09:14:23;97773.31;;;21.38;40.78
76156;BME280;64906;51.290;7.348;2023-04-22T09:16:49;97774.16;;;21.39;40.82
76156;BME280;64906;51.290;7.348;2023-04-22T09:19:15;97774.97;;;21.39;41.12
76156;BME280;64906;51.290;7.348;2023-04-22T09:21:40;97768.81;;;21.42;40.80
76156;BME280;64906;51.290;7.348;2023-04-22T09:24:07;97762.34;;;21.47;40.73
76156;BME280;64906;51.290;7.348;2023-04-22T09:26:33;97762.03;;;21.48;40.99
76156;BME280;64906;51.290;7.348;2023-04-22T09:28:58;97758.97;;;21.50;41.09
76156;BME280;64906;51.290;7.348;2023-04-22T09:31:26;97758.97;;;21.50;41.02
76156;BME280;64906;51.290;7.348;2023-04-22T09:33:54;97753.13;;;21.51;41.01
76156;BME280;64906;51.290;7.348;2023-04-22T09:36:30;97759.13;;;21.53;41.27
76156;BME280;64906;51.290;7.348;2023-04-22T09:39:00;97756.38;;;21.53;41.03
76156;BME280;64906;51.290;7.348;2023-04-22T09:41:33;97748.63;;;21.55;41.29
76156;BME280;64906;51.290;7.348;2023-04-22T09:44:01;97756.88;;;21.55;41.52
76156;BME280;64906;51.290;7.348;2023-04-22T09:46:28;97748.28;;;21.57;41.30
76156;BME280;64906;51.290;7.348;2023-04-22T09:48:55;97756.53;;;21.57;41.54
76156;BME280;64906;51.290;7.348;2023-04-22T09:51:21;97753.47;;;21.58;40.98
76156;BME280;64906;51.290;7.348;2023-04-22T09:54:00;97745.38;;;21.62;41.41
76156;BME280;64906;51.290;7.348;2023-04-22T09:56:45;97745.38;;;21.62;41.54
76156;BME280;64906;51.290;7.348;2023-04-22T09:59:22;97745.06;;;21.63;41.35
76156;BME280;64906;51.290;7.348;2023-04-22T10:01:50;97738.91;;;21.66;41.61
76156;BME280;64906;51.290;7.348;2023-04-22T10:04:15;97742.47;;;21.67;41.23
76156;BME280;64906;51.290;7.348;2023-04-22T10:06:45;97753.47;;;21.67;41.32
76156;BME280;64906;51.290;7.348;2023-04-22T10:09:11;97745.38;;;21.70;41.21
76156;BME280;64906;51.290;7.348;2023-04-22T10:11:37;97742.63;;;21.70;41.06
76156;BME280;64906;51.290;7.348;2023-04-22T10:14:04;97733.91;;;21.68;41.46
76156;BME280;64906;51.290;7.348;2023-04-22T10:16:31;97732.94;;;21.73;40.88
76156;BME280;64906;51.290;7.348;2023-04-22T10:19:02;97737.75;;;21.76;40.66
76156;BME280;64906;51.290;7.348;2023-04-22T10:21:29;97734.22;;;21.75;40.88
76156;BME280;64906;51.290;7.348;2023-04-22T10:23:57;97736.69;;;21.77;40.65
76156;BME280;64906;51.290;7.348;2023-04-22T10:26:42;97739.88;;;21.79;40.92
76156;BME280;64906;51.290;7.348;2023-04-22T10:29:13;97744.59;;;21.78;40.58
76156;BME280;64906;51.290;7.348;2023-04-22T10:31:42;97740.22;;;21.77;40.79
76156;BME280;64906;51.290;7.348;2023-04-22T10:34:12;97729.22;;;21.77;40.48
76156;BME280;64906;51.290;7.348;2023-04-22T10:36:54;97735.53;;;21.78;40.37
76156;BME280;64906;51.290;7.348;2023-04-22T10:39:21;97746.53;;;21.78;40.83
76156;BME280;64906;51.290;7.348;2023-04-22T10:42:11;97754.25;;;21.76;40.72
76156;BME280;64906;51.290;7.348;2023-04-22T10:44:52;97737.47;;;21.77;40.17
76156;BME280;64906;51.290;7.348;2023-04-22T10:50:16;97728.56;;;21.80;40.23
76156;BME280;64906;51.290;7.348;2023-04-22T10:52:44;97731.31;;;21.80;40.11
76156;BME280;64906;51.290;7.348;2023-04-22T10:55:10;97737.28;;;21.82;40.39
76156;BME280;64906;51.290;7.348;2023-04-22T10:57:40;97734.88;;;21.81;40.21
76156;BME280;64906;51.290;7.348;2023-04-22T11:00:21;97744.59;;;21.78;40.15
76156;BME280;64906;51.290;7.348;2023-04-22T11:03:14;97758.66;;;21.77;40.62
76156;BME280;64906;51.290;7.348;2023-04-22T11:05:40;97750.41;;;21.77;40.43
76156;BME280;64906;51.290;7.348;2023-04-22T11:08:17;97742.63;;;21.79;40.43
76156;BME280;64906;51.290;7.348;2023-04-22T11:10:46;97748.94;;;21.79;40.06
76156;BME280;64906;51.290;7.348;2023-04-22T11:13:14;97745.88;;;21.81;40.37
76156;BME280;64906;51.290;7.348;2023-04-22T11:15:42;97733.88;;;21.85;39.79
76156;BME280;64906;51.290;7.348;2023-04-22T11:18:11;97732.28;;;21.84;40.23
76156;BME280;64906;51.290;7.348;2023-04-22T11:20:37;97732.28;;;21.84;40.23
76156;BME280;64906;51.290;7.348;2023-04-22T11:23:03;97732.28;;;21.84;40.16
76156;BME280;64906;51.290;7.348;2023-04-22T11:25:29;97733.56;;;21.87;40.17
76156;BME280;64906;51.290;7.348;2023-04-22T11:27:55;97738.28;;;21.86;40.03
76156;BME280;64906;51.290;7.348;2023-04-22T11:30:23;97735.19;;;21.88;40.07
76156;BME280;64906;51.290;7.348;2023-04-22T11:32:54;97745.53;;;21.91;39.97
76156;BME280;64906;51.290;7.348;2023-04-22T11:35:26;97734.22;;;21.92;39.75
76156;BME280;64906;51.290;7.348;2023-04-22T11:38:03;97732.28;;;21.93;39.85
76156;BME280;64906;51.290;7.348;2023-04-22T11:40:36;97737.78;;;21.93;40.05
76156;BME280;64906;51.290;7.348;2023-04-22T11:43:03;97735.81;;;21.93;40.04
76156;BME280;64906;51.290;7.348;2023-04-22T11:45:31;97741.78;;;21.95;39.53
76156;BME280;64906;51.290;7.348;2023-04-22T11:47:57;97739.84;;;21.96;39.92
76156;BME280;64906;51.290;7.348;2023-04-22T11:50:24;97736.28;;;21.95;39.61
76156;BME280;64906;51.290;7.348;2023-04-22T11:53:01;97739.84;;;21.96;39.56
76156;BME280;64906;51.290;7.348;2023-04-22T11:55:34;97743.44;;;21.96;39.57
76156;BME280;64906;51.290;7.348;2023-04-22T12:00:46;97733.72;;;21.99;39.46
76156;BME280;64906;51.290;7.348;2023-04-22T12:03:16;97734.34;;;22.04;39.53
76156;BME280;64906;51.290;7.348;2023-04-22T12:05:46;97722.69;;;22.07;39.52
76156;BME280;64906;51.290;7.348;2023-04-22T12:08:14;97725.75;;;22.14;39.41
76156;BME280;64906;51.290;7.348;2023-04-22T12:11:03;97718.28;;;22.15;39.24
76156;BME280;64906;51.290;7.348;2023-04-22T12:13:39;97727.03;;;22.17;39.54
76156;BME280;64906;51.290;7.348;2023-04-22T12:16:09;97733.66;;;22.16;39.57
76156;BME280;64906;51.290;7.348;2023-04-22T12:18:39;97726.53;;;22.15;39.17
76156;BME280;64906;51.290;7.348;2023-04-22T12:21:09;97758.41;;;22.16;39.52
76156;BME280;64906;51.290;7.348;2023-04-22T12:23:42;97749.19;;;22.12;39.55
76156;BME280;64906;51.290;7.348;2023-04-22T12:26:08;97754.69;;;22.12;39.51
76156;BME280;64906;51.290;7.348;2023-04-22T12:28:33;97753.09;;;22.11;39.64
76156;BME280;64906;51.290;7.348;2023-04-22T12:30:58;97766.50;;;22.12;39.25
76156;BME280;64906;51.290;7.348;2023-04-22T12:33:24;97748.38;;;22.11;39.58
76156;BME280;64906;51.290;7.348;2023-04-22T12:35:50;97753.41;;;22.09;39.55
76156;BME280;64906;51.290;7.348;2023-04-22T12:38:17;97758.44;;;22.07;39.34
76156;BME280;64906;51.290;7.348;2023-04-22T12:40:42;97758.59;;;22.11;39.27
76156;BME280;64906;51.290;7.348;2023-04-22T12:43:08;97757.09;;;22.13;39.24
76156;BME280;64906;51.290;7.348;2023-04-22T12:45:33;97743.03;;;22.15;39.37
76156;BME280;64906;51.290;7.348;2023-04-22T12:47:59;97754.03;;;22.15;39.29
76156;BME280;64906;51.290;7.348;2023-04-22T12:50:24;97756.00;;;22.14;39.38
76156;BME280;64906;51.290;7.348;2023-04-22T12:52:50;97751.28;;;22.15;39.30
76156;BME280;64906;51.290;7.348;2023-04-22T12:55:15;97748.19;;;22.16;39.12
76156;BME280;64906;51.290;7.348;2023-04-22T12:57:42;97747.41;;;22.16;39.35
76156;BME280;64906;51.290;7.348;2023-04-22T13:00:07;97748.53;;;22.15;39.36
76156;BME280;64906;51.290;7.348;2023-04-22T13:02:40;97757.75;;;22.19;39.54